createdAt,value
2017-02-28T00:00:10.171Z,8.05
2017-02-28T00:01:23.280Z,8.05
2017-02-28T00:02:36.361Z,8.14
2017-02-28T00:03:49.432Z,8.14
2017-02-28T00:05:02.496Z,8.09
2017-02-28T00:06:15.527Z,8.08
2017-02-28T00:07:28.583Z,8.11
2017-02-28T00:08:41.266Z,8.18
2017-02-28T00:09:53.980Z,8.16
2017-02-28T00:11:07.100Z,8.23
2017-02-28T00:12:20.185Z,8.26
2017-02-28T00:13:32.827Z,8.27
2017-02-28T00:14:45.895Z,8.26
2017-02-28T00:15:58.967Z,8.32
2017-02-28T00:17:12.042Z,8.27
2017-02-28T00:18:24.726Z,8.26
2017-02-28T00:19:37.798Z,8.28
2017-02-28T00:20:50.868Z,8.42
2017-02-28T00:22:03.543Z,8.35
2017-02-28T00:23:16.582Z,8.38
2017-02-28T00:24:28.888Z,8.42
2017-02-28T00:25:41.983Z,8.38
2017-02-28T00:26:55.054Z,8.53
2017-02-28T00:28:08.124Z,8.46
2017-02-28T00:29:21.185Z,8.54
2017-02-28T00:30:34.243Z,8.44
2017-02-28T00:31:47.314Z,8.46
2017-02-28T00:33:00.365Z,8.5
2017-02-28T00:34:13.094Z,8.59
2017-02-28T00:35:26.226Z,8.54
2017-02-28T00:36:39.286Z,8.56
2017-02-28T00:37:52.371Z,8.6
2017-02-28T00:39:05.503Z,8.68
2017-02-28T00:40:18.559Z,8.66
2017-02-28T00:41:31.629Z,8.78
2017-02-28T00:42:44.315Z,8.78
2017-02-28T00:43:57.374Z,8.81
2017-02-28T00:45:10.419Z,8.95
2017-02-28T00:46:22.733Z,8.89
2017-02-28T00:47:35.440Z,8.96
2017-02-28T00:48:48.499Z,8.93
2017-02-28T00:50:01.579Z,8.99
2017-02-28T00:51:14.637Z,9.03
2017-02-28T00:52:26.968Z,9.13
2017-02-28T00:53:40.046Z,9.18
2017-02-28T00:54:53.178Z,9.21
2017-02-28T00:56:06.237Z,9.26
2017-02-28T00:57:19.300Z,9.27
2017-02-28T00:58:31.969Z,9.37
2017-02-28T00:59:45.016Z,9.45
2017-02-28T01:00:58.111Z,9.54
2017-02-28T01:02:11.182Z,9.52
2017-02-28T01:03:23.878Z,9.55
2017-02-28T01:04:36.949Z,9.66
2017-02-28T01:05:50.291Z,9.74
2017-02-28T01:07:03.410Z,9.76
2017-02-28T01:08:16.155Z,9.92
2017-02-28T01:09:29.257Z,9.92
2017-02-28T01:10:42.304Z,9.91
2017-02-28T01:11:55.379Z,9.95
2017-02-28T01:13:08.466Z,10.02
2017-02-28T01:14:21.545Z,10.09
2017-02-28T01:15:34.622Z,10.21
2017-02-28T01:16:47.666Z,10.13
2017-02-28T01:18:00.754Z,10.23
2017-02-28T01:19:13.818Z,10.28
2017-02-28T01:20:26.902Z,10.28
2017-02-28T01:21:39.976Z,10.31
2017-02-28T01:22:52.642Z,10.34
2017-02-28T01:24:05.711Z,10.42
2017-02-28T01:25:18.385Z,10.36
2017-02-28T01:26:31.450Z,10.43
2017-02-28T01:27:44.546Z,10.38
2017-02-28T01:28:57.614Z,10.45
2017-02-28T01:30:10.308Z,10.46
2017-02-28T01:31:22.993Z,10.43
2017-02-28T01:32:36.147Z,10.45
2017-02-28T01:33:48.851Z,10.51
2017-02-28T01:35:01.567Z,10.55
2017-02-28T01:36:14.647Z,10.61
2017-02-28T01:37:27.368Z,10.55
2017-02-28T01:38:40.435Z,10.58
2017-02-28T01:39:53.526Z,10.51
2017-02-28T01:41:06.601Z,10.67
2017-02-28T01:42:19.693Z,10.55
2017-02-28T01:43:32.393Z,10.59
2017-02-28T01:44:45.481Z,10.71
2017-02-28T01:45:58.562Z,10.67
2017-02-28T01:47:11.680Z,10.67
2017-02-28T01:48:24.418Z,10.61
2017-02-28T01:49:37.090Z,10.68
2017-02-28T01:50:50.143Z,10.61
2017-02-28T01:52:03.215Z,10.71
2017-02-28T01:53:16.284Z,10.76
2017-02-28T01:54:29.359Z,10.68
2017-02-28T01:55:42.032Z,10.71
2017-02-28T01:56:55.122Z,10.68
2017-02-28T01:58:08.168Z,10.67
2017-02-28T01:59:21.234Z,10.72
2017-02-28T02:00:33.943Z,10.76
2017-02-28T02:01:47.030Z,10.67
2017-02-28T02:03:00.081Z,10.64
2017-02-28T02:04:13.222Z,10.59
2017-02-28T02:05:26.302Z,10.59
2017-02-28T02:06:39.395Z,10.67
2017-02-28T02:07:52.480Z,10.62
2017-02-28T02:09:05.572Z,10.62
2017-02-28T02:10:18.627Z,10.67
2017-02-28T02:11:31.301Z,10.67
2017-02-28T02:12:44.413Z,10.58
2017-02-28T02:13:57.532Z,10.59
2017-02-28T02:15:10.630Z,10.55
2017-02-28T02:16:23.706Z,10.55
2017-02-28T02:17:36.798Z,10.43
2017-02-28T02:18:49.864Z,10.43
2017-02-28T02:20:02.942Z,10.42
2017-02-28T02:21:15.639Z,10.45
2017-02-28T02:22:28.985Z,10.39
2017-02-28T02:23:42.059Z,10.36
2017-02-28T02:24:55.118Z,10.33
2017-02-28T02:26:07.825Z,10.39
2017-02-28T02:27:20.889Z,10.34
2017-02-28T02:28:33.963Z,10.33
2017-02-28T02:29:47.009Z,10.34
2017-02-28T02:31:00.122Z,10.3
2017-02-28T02:32:13.204Z,10.33
2017-02-28T02:33:25.897Z,10.27
2017-02-28T02:34:38.969Z,10.23
2017-02-28T02:35:51.309Z,10.2
2017-02-28T02:37:04.402Z,10.24
2017-02-28T02:38:17.482Z,10.2
2017-02-28T02:39:30.154Z,10.13
2017-02-28T02:40:43.226Z,10.28
2017-02-28T02:41:56.343Z,10.24
2017-02-28T02:43:09.470Z,10.28
2017-02-28T02:44:22.567Z,10.18
2017-02-28T02:45:35.684Z,10.25
2017-02-28T02:46:48.768Z,10.23
2017-02-28T02:48:01.843Z,10.12
2017-02-28T02:49:14.914Z,10.2
2017-02-28T02:50:27.992Z,10.13
2017-02-28T02:51:41.118Z,10.13
2017-02-28T02:52:53.812Z,10.17
2017-02-28T02:54:06.905Z,10.12
2017-02-28T02:55:19.601Z,10.1
2017-02-28T02:56:32.268Z,10.1
2017-02-28T02:57:45.342Z,10.06
2017-02-28T02:58:58.438Z,10.12
2017-02-28T03:00:10.735Z,10.02
2017-02-28T03:01:23.795Z,9.95
2017-02-28T03:02:36.848Z,10.07
2017-02-28T03:03:49.924Z,10
2017-02-28T03:05:03.288Z,9.99
2017-02-28T03:06:15.981Z,9.95
2017-02-28T03:07:28.309Z,10
2017-02-28T03:08:41.030Z,9.97
2017-02-28T03:09:54.098Z,9.91
2017-02-28T03:11:07.187Z,9.97
2017-02-28T03:12:20.277Z,9.91
2017-02-28T03:13:32.957Z,9.91
2017-02-28T03:14:46.081Z,9.91
2017-02-28T03:15:59.152Z,9.87
2017-02-28T03:17:12.249Z,9.91
2017-02-28T03:18:24.561Z,9.94
2017-02-28T03:19:37.216Z,9.91
2017-02-28T03:20:50.304Z,9.97
2017-02-28T03:22:03.356Z,9.92
2017-02-28T03:23:16.427Z,9.88
2017-02-28T03:24:29.515Z,9.88
2017-02-28T03:25:42.568Z,9.85
2017-02-28T03:26:55.911Z,9.85
2017-02-28T03:28:08.606Z,9.91
2017-02-28T03:29:21.314Z,9.92
2017-02-28T03:30:34.045Z,9.82
2017-02-28T03:31:46.723Z,9.9
2017-02-28T03:32:59.390Z,9.84
2017-02-28T03:34:12.489Z,9.8
2017-02-28T03:35:25.540Z,9.81
2017-02-28T03:36:38.628Z,9.85
2017-02-28T03:37:51.306Z,9.85
2017-02-28T03:39:04.351Z,9.77
2017-02-28T03:40:17.461Z,9.76
2017-02-28T03:41:30.114Z,9.73
2017-02-28T03:42:43.163Z,9.72
2017-02-28T03:43:56.249Z,9.74
2017-02-28T03:45:09.307Z,9.74
2017-02-28T03:46:21.982Z,9.72
2017-02-28T03:47:34.298Z,9.74
2017-02-28T03:48:47.360Z,9.8
2017-02-28T03:50:00.432Z,9.8
2017-02-28T03:51:13.105Z,9.74
2017-02-28T03:52:25.769Z,9.73
2017-02-28T03:53:38.468Z,9.7
2017-02-28T03:54:51.565Z,9.73
2017-02-28T03:56:04.632Z,9.73
2017-02-28T03:57:17.686Z,9.67
2017-02-28T03:58:30.773Z,9.73
2017-02-28T03:59:43.830Z,9.76
2017-02-28T04:00:56.901Z,9.67
2017-02-28T04:02:09.998Z,9.7
2017-02-28T04:03:23.081Z,9.69
2017-02-28T04:04:35.353Z,9.8
2017-02-28T04:05:48.401Z,9.72
2017-02-28T04:07:01.471Z,9.72
2017-02-28T04:08:14.555Z,9.72
2017-02-28T04:09:27.244Z,9.72
2017-02-28T04:10:40.265Z,9.72
2017-02-28T04:11:53.357Z,9.74
2017-02-28T04:13:06.458Z,9.7
2017-02-28T04:14:19.503Z,9.67
2017-02-28T04:15:31.831Z,9.7
2017-02-28T04:16:44.921Z,9.73
2017-02-28T04:17:57.945Z,9.72
2017-02-28T04:19:11.019Z,9.72
2017-02-28T04:20:23.711Z,9.69
2017-02-28T04:21:36.413Z,9.77
2017-02-28T04:22:49.478Z,9.74
2017-02-28T04:24:02.539Z,9.74
2017-02-28T04:25:15.232Z,9.72
2017-02-28T04:26:27.142Z,9.72
2017-02-28T04:27:40.237Z,9.76
2017-02-28T04:28:53.307Z,9.76
2017-02-28T04:30:06.395Z,9.76
2017-02-28T04:31:18.700Z,9.72
2017-02-28T04:32:31.796Z,9.73
2017-02-28T04:33:44.516Z,9.74
2017-02-28T04:34:57.640Z,9.7
2017-02-28T04:36:10.733Z,9.77
2017-02-28T04:37:23.679Z,9.73
2017-02-28T04:38:35.596Z,9.73
2017-02-28T04:39:48.685Z,9.73
2017-02-28T04:41:01.736Z,9.73
2017-02-28T04:42:14.816Z,9.76
2017-02-28T04:43:27.505Z,9.72
2017-02-28T04:44:40.553Z,9.59
2017-02-28T04:45:53.678Z,9.67
2017-02-28T04:47:06.796Z,9.72
2017-02-28T04:48:19.510Z,9.62
2017-02-28T04:49:32.589Z,9.63
2017-02-28T04:50:45.659Z,9.59
2017-02-28T04:51:58.748Z,9.66
2017-02-28T04:53:11.426Z,9.63
2017-02-28T04:54:24.114Z,9.59
2017-02-28T04:55:36.440Z,9.59
2017-02-28T04:56:49.495Z,9.62
2017-02-28T04:58:02.535Z,9.59
2017-02-28T04:59:15.645Z,9.59
2017-02-28T05:00:28.747Z,9.55
2017-02-28T05:01:41.800Z,9.66
2017-02-28T05:02:54.870Z,9.67
2017-02-28T05:04:07.965Z,9.55
2017-02-28T05:05:21.308Z,9.64
2017-02-28T05:06:34.363Z,9.64
2017-02-28T05:07:47.447Z,9.62
2017-02-28T05:09:00.550Z,9.59
2017-02-28T05:10:13.624Z,9.59
2017-02-28T05:11:26.693Z,9.59
2017-02-28T05:12:39.808Z,9.58
2017-02-28T05:13:52.871Z,9.56
2017-02-28T05:15:05.570Z,9.63
2017-02-28T05:16:17.867Z,9.58
2017-02-28T05:17:30.945Z,9.54
2017-02-28T05:18:43.666Z,9.54
2017-02-28T05:19:56.777Z,9.58
2017-02-28T05:21:09.078Z,9.49
2017-02-28T05:22:22.180Z,9.54
2017-02-28T05:23:35.251Z,9.49
2017-02-28T05:24:48.313Z,9.55
2017-02-28T05:26:01.400Z,9.54
2017-02-28T05:27:14.130Z,9.52
2017-02-28T05:28:27.159Z,9.59
2017-02-28T05:29:40.296Z,9.58
2017-02-28T05:30:52.993Z,9.51
2017-02-28T05:32:06.325Z,9.49
2017-02-28T05:33:19.420Z,9.54
2017-02-28T05:34:32.477Z,9.54
2017-02-28T05:35:45.549Z,9.49
2017-02-28T05:36:58.594Z,9.49
2017-02-28T05:38:11.673Z,9.48
2017-02-28T05:39:24.711Z,9.49
2017-02-28T05:40:37.781Z,9.51
2017-02-28T05:41:50.840Z,9.48
2017-02-28T05:43:03.960Z,9.51
2017-02-28T05:44:17.073Z,9.51
2017-02-28T05:45:30.176Z,9.47
2017-02-28T05:46:43.237Z,9.48
2017-02-28T05:47:55.918Z,9.49
2017-02-28T05:49:09.265Z,9.49
2017-02-28T05:50:22.310Z,9.48
2017-02-28T05:51:35.377Z,9.48
2017-02-28T05:52:48.448Z,9.51
2017-02-28T05:54:01.498Z,9.51
2017-02-28T05:55:14.569Z,9.48
2017-02-28T05:56:27.640Z,9.49
2017-02-28T05:57:40.727Z,9.48
2017-02-28T05:58:53.782Z,9.48
2017-02-28T06:00:07.096Z,9.49
2017-02-28T06:01:19.774Z,9.47
2017-02-28T06:02:32.485Z,9.51
2017-02-28T06:03:45.164Z,9.51
2017-02-28T06:04:58.235Z,9.47
2017-02-28T06:06:10.949Z,9.51
2017-02-28T06:07:24.074Z,9.48
2017-02-28T06:08:37.138Z,9.44
2017-02-28T06:09:50.250Z,9.47
2017-02-28T06:11:03.293Z,9.51
2017-02-28T06:12:16.416Z,9.47
2017-02-28T06:13:29.104Z,9.49
2017-02-28T06:14:42.166Z,9.48
2017-02-28T06:15:55.250Z,9.44
2017-02-28T06:17:08.316Z,9.48
2017-02-28T06:18:21.362Z,9.42
2017-02-28T06:19:34.027Z,9.51
2017-02-28T06:20:47.107Z,9.52
2017-02-28T06:22:00.149Z,9.49
2017-02-28T06:23:12.841Z,9.47
2017-02-28T06:24:25.545Z,9.49
2017-02-28T06:25:38.617Z,9.52
2017-02-28T06:26:51.660Z,9.48
2017-02-28T06:28:04.353Z,9.49
2017-02-28T06:29:17.434Z,9.55
2017-02-28T06:30:30.147Z,9.45
2017-02-28T06:31:42.463Z,9.47
2017-02-28T06:32:55.569Z,9.42
2017-02-28T06:34:08.639Z,9.42
2017-02-28T06:35:20.976Z,9.48
2017-02-28T06:36:34.033Z,9.44
2017-02-28T06:37:47.096Z,9.45
2017-02-28T06:39:00.170Z,9.49
2017-02-28T06:40:13.264Z,9.52
2017-02-28T06:41:25.588Z,9.45
2017-02-28T06:42:38.655Z,9.47
2017-02-28T06:43:51.325Z,9.44
2017-02-28T06:45:04.402Z,9.33
2017-02-28T06:46:17.091Z,9.42
2017-02-28T06:47:29.783Z,9.44
2017-02-28T06:48:42.463Z,9.4
2017-02-28T06:49:55.138Z,9.34
2017-02-28T06:51:08.273Z,9.37
2017-02-28T06:52:20.979Z,9.33
2017-02-28T06:53:33.314Z,9.37
2017-02-28T06:54:46.017Z,9.3
2017-02-28T06:55:59.068Z,9.29
2017-02-28T06:57:12.152Z,9.29
2017-02-28T06:58:24.876Z,9.24
2017-02-28T06:59:37.632Z,9.27
2017-02-28T07:00:50.696Z,9.15
2017-02-28T07:02:03.793Z,9.18
2017-02-28T07:03:16.867Z,9.19
2017-02-28T07:04:29.147Z,9.22
2017-02-28T07:05:42.220Z,9.18
2017-02-28T07:06:55.290Z,9.15
2017-02-28T07:08:07.973Z,9.19
2017-02-28T07:09:20.681Z,9.19
2017-02-28T07:10:33.727Z,9.05
2017-02-28T07:11:46.434Z,9.05
2017-02-28T07:12:59.504Z,9.12
2017-02-28T07:14:12.548Z,9.12
2017-02-28T07:15:25.643Z,9.02
2017-02-28T07:16:38.318Z,8.99
2017-02-28T07:17:51.385Z,8.96
2017-02-28T07:19:04.416Z,9
2017-02-28T07:20:17.469Z,9
2017-02-28T07:21:30.824Z,8.93
2017-02-28T07:22:43.872Z,8.99
2017-02-28T07:23:56.950Z,8.96
2017-02-28T07:25:10.063Z,8.89
2017-02-28T07:26:23.150Z,8.97
2017-02-28T07:27:36.233Z,8.87
2017-02-28T07:28:48.927Z,8.93
2017-02-28T07:30:02.013Z,8.87
2017-02-28T07:31:15.086Z,8.87
2017-02-28T07:32:27.786Z,8.92
2017-02-28T07:33:40.491Z,8.92
2017-02-28T07:34:53.602Z,8.75
2017-02-28T07:36:06.666Z,8.9
2017-02-28T07:37:19.593Z,8.79
2017-02-28T07:38:32.643Z,8.82
2017-02-28T07:39:45.711Z,8.89
2017-02-28T07:40:58.427Z,8.84
2017-02-28T07:42:11.124Z,8.78
2017-02-28T07:43:23.826Z,8.79
2017-02-28T07:44:36.501Z,8.79
2017-02-28T07:45:49.593Z,8.75
2017-02-28T07:47:02.689Z,8.82
2017-02-28T07:48:15.807Z,8.86
2017-02-28T07:49:28.521Z,8.78
2017-02-28T07:50:41.573Z,8.77
2017-02-28T07:51:54.647Z,8.79
2017-02-28T07:53:07.761Z,8.77
2017-02-28T07:54:20.467Z,8.77
2017-02-28T07:55:33.156Z,8.75
2017-02-28T07:56:46.209Z,8.78
2017-02-28T07:57:59.268Z,8.78
2017-02-28T07:59:12.352Z,8.77
2017-02-28T08:00:25.419Z,8.71
2017-02-28T08:01:38.095Z,8.69
2017-02-28T08:02:51.187Z,8.72
2017-02-28T08:04:04.278Z,8.74
2017-02-28T08:05:17.393Z,8.63
2017-02-28T08:06:30.494Z,8.68
2017-02-28T08:07:43.164Z,8.63
2017-02-28T08:08:56.285Z,8.64
2017-02-28T08:10:09.355Z,8.61
2017-02-28T08:11:22.068Z,8.59
2017-02-28T08:12:35.128Z,8.56
2017-02-28T08:13:48.194Z,8.6
2017-02-28T08:15:01.241Z,8.6
2017-02-28T08:16:13.928Z,8.57
2017-02-28T08:17:27.005Z,8.59
2017-02-28T08:18:40.058Z,8.6
2017-02-28T08:19:52.766Z,8.56
2017-02-28T08:21:05.873Z,8.63
2017-02-28T08:22:18.941Z,8.54
2017-02-28T08:23:32.010Z,8.59
2017-02-28T08:24:44.699Z,8.63
2017-02-28T08:25:57.779Z,8.63
2017-02-28T08:27:10.480Z,8.61
2017-02-28T08:28:23.186Z,8.66
2017-02-28T08:29:36.249Z,8.69
2017-02-28T08:30:48.938Z,8.71
2017-02-28T08:32:01.987Z,8.69
2017-02-28T08:33:15.128Z,8.72
2017-02-28T08:34:28.225Z,8.66
2017-02-28T08:35:41.293Z,8.69
2017-02-28T08:36:53.983Z,8.74
2017-02-28T08:38:06.660Z,8.69
2017-02-28T08:39:19.731Z,8.71
2017-02-28T08:40:32.801Z,8.75
2017-02-28T08:41:45.872Z,8.72
2017-02-28T08:42:58.570Z,8.75
2017-02-28T08:44:11.633Z,8.74
2017-02-28T08:45:23.953Z,8.77
2017-02-28T08:46:36.631Z,8.77
2017-02-28T08:47:49.684Z,8.75
2017-02-28T08:49:02.326Z,8.77
2017-02-28T08:50:15.417Z,8.75
2017-02-28T08:51:28.532Z,8.84
2017-02-28T08:52:40.857Z,8.86
2017-02-28T08:53:53.174Z,8.82
2017-02-28T08:55:06.253Z,8.81
2017-02-28T08:56:19.299Z,8.86
2017-02-28T08:57:32.372Z,8.82
2017-02-28T08:58:45.065Z,8.78
2017-02-28T08:59:58.131Z,8.9
2017-02-28T09:01:10.807Z,8.9
2017-02-28T09:02:23.511Z,8.92
2017-02-28T09:03:36.591Z,8.89
2017-02-28T09:04:49.894Z,8.99
2017-02-28T09:06:03.040Z,9.05
2017-02-28T09:07:15.757Z,8.97
2017-02-28T09:08:28.887Z,9.05
2017-02-28T09:09:40.830Z,9.11
2017-02-28T09:10:53.903Z,9.05
2017-02-28T09:12:06.994Z,9.12
2017-02-28T09:13:20.094Z,9.18
2017-02-28T09:14:33.206Z,9.11
2017-02-28T09:15:45.915Z,9.12
2017-02-28T09:16:58.970Z,9.18
2017-02-28T09:18:12.123Z,9.18
2017-02-28T09:19:25.195Z,9.15
2017-02-28T09:20:38.265Z,9.12
2017-02-28T09:21:50.940Z,9.15
2017-02-28T09:23:03.991Z,9.11
2017-02-28T09:24:17.033Z,9.15
2017-02-28T09:25:30.131Z,9.13
2017-02-28T09:26:43.219Z,9.08
2017-02-28T09:27:56.264Z,9.19
2017-02-28T09:29:09.389Z,9.15
2017-02-28T09:30:21.688Z,9.15
2017-02-28T09:31:34.409Z,9.13
2017-02-28T09:32:47.152Z,9.12
2017-02-28T09:34:00.267Z,9.21
2017-02-28T09:35:12.991Z,9.15
2017-02-28T09:36:26.090Z,9.15
2017-02-28T09:37:39.215Z,9.18
2017-02-28T09:38:52.304Z,9.08
2017-02-28T09:40:05.377Z,9.21
2017-02-28T09:41:18.071Z,9.13
2017-02-28T09:42:31.393Z,9.19
2017-02-28T09:43:44.468Z,9.15
2017-02-28T09:44:57.526Z,9.18
2017-02-28T09:46:10.222Z,9.12
2017-02-28T09:47:23.267Z,9.18
2017-02-28T09:48:35.987Z,9.19
2017-02-28T09:49:48.684Z,9.19
2017-02-28T09:51:01.755Z,9.18
2017-02-28T09:52:14.837Z,9.15
2017-02-28T09:53:27.932Z,9.18
2017-02-28T09:54:40.686Z,9.16
2017-02-28T09:55:53.755Z,9.15
2017-02-28T09:57:06.844Z,9.13
2017-02-28T09:58:19.919Z,9.21
2017-02-28T09:59:33.209Z,9.16
2017-02-28T10:00:46.307Z,9.15
2017-02-28T10:01:58.972Z,9.21
2017-02-28T10:03:12.068Z,9.15
2017-02-28T10:04:25.147Z,9.21
2017-02-28T10:05:38.210Z,9.18
2017-02-28T10:06:51.312Z,9.19
2017-02-28T10:08:04.364Z,9.27
2017-02-28T10:09:17.423Z,9.21
2017-02-28T10:10:30.544Z,9.26
2017-02-28T10:11:43.643Z,9.27
2017-02-28T10:12:56.313Z,9.31
2017-02-28T10:14:09.439Z,9.33
2017-02-28T10:15:22.536Z,9.31
2017-02-28T10:16:35.244Z,9.4
2017-02-28T10:17:47.498Z,9.31
2017-02-28T10:19:00.578Z,9.47
2017-02-28T10:20:13.666Z,9.34
2017-02-28T10:21:26.338Z,9.44
2017-02-28T10:22:38.630Z,9.48
2017-02-28T10:23:50.552Z,9.45
2017-02-28T10:25:03.598Z,9.49
2017-02-28T10:26:16.669Z,9.49
2017-02-28T10:27:29.768Z,9.51
2017-02-28T10:28:42.843Z,9.62
2017-02-28T10:29:55.599Z,9.64
2017-02-28T10:31:07.931Z,9.67
2017-02-28T10:32:21.041Z,9.7
2017-02-28T10:33:33.370Z,9.77
2017-02-28T10:34:46.444Z,9.7
2017-02-28T10:35:59.562Z,9.76
2017-02-28T10:37:12.662Z,9.76
2017-02-28T10:38:25.320Z,9.69
2017-02-28T10:39:37.651Z,9.8
2017-02-28T10:40:50.720Z,9.76
2017-02-28T10:42:03.787Z,9.77
2017-02-28T10:43:16.863Z,9.72
2017-02-28T10:44:29.541Z,9.77
2017-02-28T10:45:41.881Z,9.72
2017-02-28T10:46:54.924Z,9.72
2017-02-28T10:48:07.991Z,9.8
2017-02-28T10:49:21.069Z,9.73
2017-02-28T10:50:33.733Z,9.72
2017-02-28T10:51:46.812Z,9.72
2017-02-28T10:52:59.882Z,9.56
2017-02-28T10:54:12.971Z,9.54
2017-02-28T10:55:26.079Z,9.44
2017-02-28T10:56:39.116Z,9.48
2017-02-28T10:57:52.210Z,9.45
2017-02-28T10:59:05.154Z,9.48
2017-02-28T11:00:17.835Z,9.54
2017-02-28T11:01:30.517Z,9.45
2017-02-28T11:02:43.663Z,9.48
2017-02-28T11:03:56.362Z,9.48
2017-02-28T11:05:09.458Z,9.45
2017-02-28T11:06:22.536Z,9.45
2017-02-28T11:07:35.623Z,9.48
2017-02-28T11:08:47.542Z,9.48
2017-02-28T11:10:00.602Z,9.51
2017-02-28T11:11:13.670Z,9.48
2017-02-28T11:12:26.738Z,9.56
2017-02-28T11:13:39.812Z,9.52
2017-02-28T11:14:52.508Z,9.54
2017-02-28T11:16:05.572Z,9.63
2017-02-28T11:17:18.275Z,9.62
2017-02-28T11:18:31.361Z,9.56
2017-02-28T11:19:44.031Z,9.64
2017-02-28T11:20:57.002Z,9.62
2017-02-28T11:22:10.153Z,9.67
2017-02-28T11:23:23.251Z,9.67
2017-02-28T11:24:35.943Z,9.72
2017-02-28T11:25:48.592Z,9.74
2017-02-28T11:27:01.265Z,9.81
2017-02-28T11:28:14.319Z,9.82
2017-02-28T11:29:27.377Z,9.88
2017-02-28T11:30:40.451Z,9.91
2017-02-28T11:31:53.572Z,9.9
2017-02-28T11:33:06.668Z,10
2017-02-28T11:34:19.735Z,10.05
2017-02-28T11:35:32.788Z,10.1
2017-02-28T11:36:45.505Z,10.21
2017-02-28T11:37:58.602Z,10.15
2017-02-28T11:39:11.650Z,10.12
2017-02-28T11:40:24.369Z,10.1
2017-02-28T11:41:37.105Z,10.21
2017-02-28T11:42:49.416Z,10.25
2017-02-28T11:44:02.082Z,10.28
2017-02-28T11:45:14.773Z,10.31
2017-02-28T11:46:27.855Z,10.36
2017-02-28T11:47:40.518Z,10.25
2017-02-28T11:48:53.619Z,10.42
2017-02-28T11:50:06.689Z,10.53
2017-02-28T11:51:19.756Z,10.51
2017-02-28T11:52:32.432Z,10.53
2017-02-28T11:53:45.505Z,10.49
2017-02-28T11:54:58.572Z,10.48
2017-02-28T11:56:11.670Z,10.53
2017-02-28T11:57:24.782Z,10.48
2017-02-28T11:58:37.883Z,10.55
2017-02-28T11:59:51.010Z,10.55
2017-02-28T12:01:03.299Z,10.59
2017-02-28T12:02:16.344Z,10.61
2017-02-28T12:03:29.019Z,10.57
2017-02-28T12:04:42.086Z,10.51
2017-02-28T12:05:54.841Z,10.57
2017-02-28T12:07:07.524Z,10.53
2017-02-28T12:08:20.576Z,10.55
2017-02-28T12:09:33.622Z,10.61
2017-02-28T12:10:46.721Z,10.59
2017-02-28T12:11:59.833Z,10.58
2017-02-28T12:13:12.574Z,10.48
2017-02-28T12:14:25.628Z,10.57
2017-02-28T12:15:38.716Z,10.57
2017-02-28T12:16:51.397Z,10.71
2017-02-28T12:18:04.486Z,10.65
2017-02-28T12:19:17.614Z,10.82
2017-02-28T12:20:30.708Z,10.8
2017-02-28T12:21:43.653Z,10.84
2017-02-28T12:22:56.725Z,10.84
2017-02-28T12:24:09.791Z,10.79
2017-02-28T12:25:22.883Z,10.94
2017-02-28T12:26:35.939Z,10.89
2017-02-28T12:27:48.607Z,10.92
2017-02-28T12:29:01.708Z,11.01
2017-02-28T12:30:14.396Z,11.02
2017-02-28T12:31:27.063Z,11.07
2017-02-28T12:32:40.119Z,10.98
2017-02-28T12:33:53.187Z,11.05
2017-02-28T12:35:06.253Z,10.94
2017-02-28T12:36:19.329Z,11.01
2017-02-28T12:37:32.421Z,11.07
2017-02-28T12:38:45.100Z,11.16
2017-02-28T12:39:58.196Z,11.22
2017-02-28T12:41:10.892Z,11.2
2017-02-28T12:42:23.959Z,11.25
2017-02-28T12:43:37.035Z,11.34
2017-02-28T12:44:50.143Z,11.41
2017-02-28T12:46:03.199Z,11.4
2017-02-28T12:47:16.287Z,11.48
2017-02-28T12:48:28.613Z,11.38
2017-02-28T12:49:41.691Z,11.37
2017-02-28T12:50:54.788Z,11.41
2017-02-28T12:52:07.504Z,11.44
2017-02-28T12:53:20.599Z,11.34
2017-02-28T12:54:32.942Z,11.37
2017-02-28T12:55:45.668Z,11.4
2017-02-28T12:56:58.731Z,11.37
2017-02-28T12:58:11.835Z,11.38
2017-02-28T12:59:25.271Z,11.35
2017-02-28T13:00:38.396Z,11.34
2017-02-28T13:01:51.535Z,11.31
2017-02-28T13:03:04.664Z,11.23
2017-02-28T13:04:17.738Z,11.25
2017-02-28T13:05:30.409Z,11.3
2017-02-28T13:06:43.546Z,11.27
2017-02-28T13:07:56.606Z,11.23
2017-02-28T13:09:09.689Z,11.22
2017-02-28T13:10:22.735Z,11.16
2017-02-28T13:11:35.431Z,11.19
2017-02-28T13:12:48.505Z,11.19
2017-02-28T13:14:01.236Z,11.16
2017-02-28T13:15:14.295Z,11.18
2017-02-28T13:16:27.446Z,11.12
2017-02-28T13:17:40.538Z,11.16
2017-02-28T13:18:52.862Z,11.16
2017-02-28T13:20:05.960Z,11.16
2017-02-28T13:21:19.326Z,11.16
2017-02-28T13:22:32.417Z,11.16
2017-02-28T13:23:45.512Z,11.15
2017-02-28T13:24:58.189Z,11.07
2017-02-28T13:26:10.863Z,11.16
2017-02-28T13:27:23.911Z,11.01
2017-02-28T13:28:36.977Z,11.05
2017-02-28T13:29:50.074Z,11.08
2017-02-28T13:31:03.171Z,11.07
2017-02-28T13:32:16.264Z,11.1
2017-02-28T13:33:28.939Z,11.15
2017-02-28T13:34:41.652Z,11.08
2017-02-28T13:35:54.727Z,11.08
2017-02-28T13:37:07.794Z,11.08
2017-02-28T13:38:20.869Z,11.13
2017-02-28T13:39:33.940Z,11.15
2017-02-28T13:40:47.014Z,11.18
2017-02-28T13:42:00.137Z,11.18
2017-02-28T13:43:13.178Z,11.15
2017-02-28T13:44:26.253Z,11.15
2017-02-28T13:45:39.328Z,11.12
2017-02-28T13:46:52.386Z,11.1
2017-02-28T13:48:05.499Z,11.12
2017-02-28T13:49:18.209Z,11.08
2017-02-28T13:50:30.932Z,11.04
2017-02-28T13:51:44.001Z,11.01
2017-02-28T13:52:56.715Z,10.9
2017-02-28T13:54:09.784Z,11.02
2017-02-28T13:55:22.465Z,10.97
2017-02-28T13:56:35.565Z,11.02
2017-02-28T13:57:48.271Z,10.97
2017-02-28T13:59:00.945Z,11.02
2017-02-28T14:00:14.026Z,10.95
2017-02-28T14:01:27.071Z,11.02
2017-02-28T14:02:40.141Z,11.08
2017-02-28T14:03:53.208Z,11.08
2017-02-28T14:05:06.300Z,11.1
2017-02-28T14:06:19.380Z,11.08
2017-02-28T14:07:32.450Z,11.18
2017-02-28T14:08:45.519Z,11.15
2017-02-28T14:09:58.592Z,11.19
2017-02-28T14:11:11.287Z,11.19
2017-02-28T14:12:24.372Z,11.19
2017-02-28T14:13:37.129Z,11.19
2017-02-28T14:14:50.226Z,11.25
2017-02-28T14:16:03.309Z,11.31
2017-02-28T14:17:16.391Z,11.33
2017-02-28T14:18:29.482Z,11.38
2017-02-28T14:19:41.822Z,11.41
2017-02-28T14:20:54.929Z,11.49
2017-02-28T14:22:07.599Z,11.49
2017-02-28T14:23:20.671Z,11.56
2017-02-28T14:24:33.431Z,11.65
2017-02-28T14:25:46.527Z,11.68
2017-02-28T14:26:59.622Z,11.83
2017-02-28T14:28:12.702Z,11.76
2017-02-28T14:29:25.797Z,11.71
2017-02-28T14:30:38.517Z,11.74
2017-02-28T14:31:51.581Z,11.59
2017-02-28T14:33:04.634Z,11.51
2017-02-28T14:34:17.754Z,11.41
2017-02-28T14:35:30.830Z,11.37
2017-02-28T14:36:43.914Z,11.35
2017-02-28T14:37:56.974Z,11.26
2017-02-28T14:39:10.056Z,11.23
2017-02-28T14:40:23.109Z,11.18
2017-02-28T14:41:35.802Z,11.07
2017-02-28T14:42:48.883Z,11.1
2017-02-28T14:44:01.951Z,11.01
2017-02-28T14:45:15.094Z,10.89
2017-02-28T14:46:28.168Z,10.94
2017-02-28T14:47:40.906Z,10.83
2017-02-28T14:48:54.010Z,10.82
2017-02-28T14:50:06.711Z,10.83
2017-02-28T14:51:19.468Z,10.72
2017-02-28T14:52:32.544Z,10.76
2017-02-28T14:53:45.617Z,10.72
2017-02-28T14:54:58.710Z,10.68
2017-02-28T14:56:11.781Z,10.64
2017-02-28T14:57:24.881Z,10.68
2017-02-28T14:58:37.969Z,10.57
2017-02-28T14:59:51.043Z,10.58
2017-02-28T15:01:04.121Z,10.58
2017-02-28T15:02:16.428Z,10.55
2017-02-28T15:03:29.554Z,10.51
2017-02-28T15:04:42.681Z,10.55
2017-02-28T15:05:55.754Z,10.45
2017-02-28T15:07:08.849Z,10.43
2017-02-28T15:08:21.888Z,10.41
2017-02-28T15:09:34.988Z,10.41
2017-02-28T15:10:48.100Z,10.41
2017-02-28T15:12:00.797Z,10.24
2017-02-28T15:13:13.497Z,10.36
2017-02-28T15:14:26.188Z,10.38
2017-02-28T15:15:39.314Z,10.36
2017-02-28T15:16:52.389Z,10.28
2017-02-28T15:18:05.456Z,10.28
2017-02-28T15:19:18.151Z,10.24
2017-02-28T15:20:31.239Z,10.31
2017-02-28T15:21:44.353Z,10.27
2017-02-28T15:22:57.446Z,10.24
2017-02-28T15:24:10.527Z,10.2
2017-02-28T15:25:23.640Z,10.21
2017-02-28T15:26:36.726Z,10.28
2017-02-28T15:27:49.800Z,10.21
2017-02-28T15:29:02.942Z,10.12
2017-02-28T15:30:15.620Z,10.07
2017-02-28T15:31:28.710Z,10.12
2017-02-28T15:32:41.402Z,10.18
2017-02-28T15:33:54.083Z,10.21
2017-02-28T15:35:07.193Z,10.2
2017-02-28T15:36:19.897Z,10.15
2017-02-28T15:37:33.006Z,10.1
2017-02-28T15:38:45.339Z,10.1
2017-02-28T15:39:58.052Z,10.18
2017-02-28T15:41:11.134Z,10.23
2017-02-28T15:42:23.843Z,10.09
2017-02-28T15:43:36.938Z,10.15
2017-02-28T15:44:50.018Z,10.12
2017-02-28T15:46:02.777Z,10.2
2017-02-28T15:47:15.481Z,10.1
2017-02-28T15:48:28.552Z,10.13
2017-02-28T15:49:41.679Z,10.1
2017-02-28T15:50:54.748Z,10.13
2017-02-28T15:52:07.031Z,10.07
2017-02-28T15:53:19.764Z,10.18
2017-02-28T15:54:32.850Z,10.1
2017-02-28T15:55:45.952Z,9.97
2017-02-28T15:56:59.071Z,10.03
2017-02-28T15:58:12.169Z,9.95
2017-02-28T15:59:25.207Z,9.97
2017-02-28T16:00:38.310Z,9.91